Time;durP1;ratioP1;P1;durP2;ratioP2;P2;SDS_P1;SDS_P2;PMS_P1;PMS_P2;Temp;Humidity;BMP_temperature;BMP_pressure;BME280_temperature;BME280_humidity;BME280_pressure;Samples;Min_cycle;Max_cycle;Signal;HPM_P1;HPM_P2
2022/03/08 00:02:16;;;;;;;0.60;0.60;;;;;;;3.65;72.93;101979.22;4987618;28;20038;-68
2022/03/08 00:04:43;;;;;;;3.53;1.60;;;;;;;3.61;73.57;101970.19;4976782;28;20045;-68
2022/03/08 00:07:08;;;;;;;1.35;1.23;;;;;;;3.59;72.84;101969.66;4991931;28;20391;-68
2022/03/08 00:09:34;;;;;;;0.80;0.50;;;;;;;3.55;73.68;101971.28;4973991;28;20034;-69
2022/03/08 00:11:59;;;;;;;2.00;0.80;;;;;;;3.52;73.34;101969.16;4990620;28;20514;-69
2022/03/08 00:14:25;;;;;;;1.45;0.93;;;;;;;3.53;73.52;101972.63;4988055;28;20034;-68
2022/03/08 00:16:50;;;;;;;3.30;0.90;;;;;;;3.49;73.20;101963.59;4990776;28;20554;-68
2022/03/08 00:19:16;;;;;;;1.33;0.90;;;;;;;3.46;73.43;101967.63;4990155;28;20439;-69
2022/03/08 00:21:41;;;;;;;1.10;1.00;;;;;;;3.51;73.75;101961.44;4976786;28;20038;-69
2022/03/08 00:24:08;;;;;;;1.90;0.90;;;;;;;3.41;72.91;101964.16;4976455;28;20045;-69
2022/03/08 00:26:33;;;;;;;1.77;0.88;;;;;;;3.33;72.87;101956.78;4992232;28;20444;-69
2022/03/08 00:28:59;;;;;;;1.42;0.90;;;;;;;3.33;73.10;101952.22;4972008;28;20061;-69
2022/03/08 00:31:24;;;;;;;1.70;1.00;;;;;;;3.31;73.11;101953.59;4988811;28;20046;-68
2022/03/08 00:33:50;;;;;;;4.47;1.30;;;;;;;3.30;74.02;101955.44;4981135;28;20033;-68
2022/03/08 00:36:16;;;;;;;0.98;0.90;;;;;;;3.24;75.04;101958.38;4991202;28;20050;-69
2022/03/08 00:38:44;;;;;;;2.28;0.65;;;;;;;3.19;74.38;101956.56;4968393;28;20035;-69
2022/03/08 00:41:09;;;;;;;3.60;0.98;;;;;;;3.20;75.01;101963.47;4970633;28;20034;-69
2022/03/08 00:43:35;;;;;;;4.35;0.65;;;;;;;3.20;75.05;101952.81;4972041;28;20152;-68
2022/03/08 00:46:00;;;;;;;1.65;0.88;;;;;;;3.23;75.31;101946.16;4972286;28;20467;-69
2022/03/08 00:48:26;;;;;;;1.55;0.68;;;;;;;3.18;74.84;101954.16;4954581;28;20038;-68
2022/03/08 00:50:52;;;;;;;1.25;0.77;;;;;;;3.15;75.44;101950.19;4973478;28;20498;-69
2022/03/08 00:53:18;;;;;;;2.05;1.08;;;;;;;3.13;75.28;101959.50;4991904;28;20058;-68
2022/03/08 00:55:44;;;;;;;1.52;0.70;;;;;;;3.08;75.26;101952.34;4980761;28;20065;-69
2022/03/08 00:58:09;;;;;;;1.75;0.82;;;;;;;3.05;76.23;101955.56;4990070;28;20030;-69
2022/03/08 01:00:37;;;;;;;2.50;1.35;;;;;;;3.02;75.82;101956.09;4990617;28;20523;-68
2022/03/08 01:03:04;;;;;;;2.35;1.20;;;;;;;3.02;76.27;101944.66;4990323;28;20114;-68
2022/03/08 01:05:31;;;;;;;2.28;1.25;;;;;;;3.00;76.21;101944.91;4990460;28;20407;-69
2022/03/08 01:07:57;;;;;;;1.83;0.90;;;;;;;2.95;75.88;101942.28;4977069;28;20042;-68
2022/03/08 01:10:24;;;;;;;4.10;1.02;;;;;;;2.93;76.18;101940.97;4955437;28;20041;-69
2022/03/08 01:12:52;;;;;;;2.05;0.90;;;;;;;2.95;76.68;101928.97;4985994;28;20030;-69
2022/03/08 01:15:19;;;;;;;1.48;0.95;;;;;;;3.00;76.38;101922.84;4991670;28;20073;-68
2022/03/08 01:17:47;;;;;;;4.97;1.00;;;;;;;3.03;76.33;101928.44;4968324;28;20492;-69
2022/03/08 01:20:13;;;;;;;1.40;0.80;;;;;;;3.02;75.70;101931.38;4971350;28;20086;-69
2022/03/08 01:22:39;;;;;;;0.63;0.63;;;;;;;2.99;75.72;101930.03;4990411;28;20049;-69
2022/03/08 01:25:05;;;;;;;0.80;0.80;;;;;;;2.97;76.20;101926.03;4996979;28;20030;-69
2022/03/08 01:27:30;;;;;;;0.63;0.60;;;;;;;2.94;76.19;101930.06;4988477;28;20152;-69
2022/03/08 01:29:56;;;;;;;1.73;0.90;;;;;;;2.89;75.77;101924.75;4959619;28;20041;-69
2022/03/08 01:32:22;;;;;;;1.20;1.10;;;;;;;2.85;76.18;101923.69;4978105;28;20046;-69
2022/03/08 01:34:48;;;;;;;3.65;1.20;;;;;;;2.77;76.42;101921.59;4964312;28;20048;-69
2022/03/08 01:37:15;;;;;;;2.60;1.00;;;;;;;2.72;76.51;101926.94;4976919;28;20045;-69
2022/03/08 01:39:40;;;;;;;1.77;0.82;;;;;;;2.75;76.94;101926.38;4986215;28;20034;-68
2022/03/08 01:42:08;;;;;;;2.40;1.05;;;;;;;2.77;76.30;101921.59;4984003;28;20125;-69
2022/03/08 01:44:33;;;;;;;1.92;1.10;;;;;;;2.75;76.65;101924.53;4976814;28;20026;-68
2022/03/08 01:46:59;;;;;;;2.70;0.73;;;;;;;2.72;77.37;101916.31;4997853;28;20494;-69
2022/03/08 01:49:24;;;;;;;0.68;0.43;;;;;;;2.69;77.00;101914.19;4995793;28;20022;-69
2022/03/08 01:51:50;;;;;;;1.90;0.85;;;;;;;2.65;77.53;101921.13;4996652;28;20104;-68
2022/03/08 01:54:15;;;;;;;1.67;0.73;;;;;;;2.59;77.35;101903.59;4996516;28;20061;-69
2022/03/08 01:56:41;;;;;;;1.13;0.70;;;;;;;2.58;77.62;101901.97;4997285;28;20050;-69
2022/03/08 01:59:06;;;;;;;7.45;1.70;;;;;;;2.57;77.57;101909.19;4990830;28;20027;-68
2022/03/08 02:01:32;;;;;;;1.70;1.00;;;;;;;2.54;77.60;101903.59;4996528;28;20447;-69
2022/03/08 02:03:57;;;;;;;1.92;0.82;;;;;;;2.55;77.88;101913.97;4993494;28;20443;-69
2022/03/08 02:06:23;;;;;;;1.15;0.60;;;;;;;2.54;78.31;101895.59;4980795;28;20121;-68
2022/03/08 02:08:48;;;;;;;1.52;0.93;;;;;;;2.51;77.82;101898.81;4994099;28;20038;-69
2022/03/08 02:11:14;;;;;;;2.95;0.80;;;;;;;2.47;77.96;101905.75;4968741;28;20096;-68
2022/03/08 02:13:40;;;;;;;0.90;0.80;;;;;;;2.44;77.95;101895.66;4981137;28;20054;-68
2022/03/08 02:16:06;;;;;;;1.20;0.98;;;;;;;2.44;77.88;101893.00;4996185;28;20030;-69
2022/03/08 02:18:32;;;;;;;0.38;0.30;;;;;;;2.44;78.08;101896.44;4985388;28;20062;-69
2022/03/08 02:21:05;;;;;;;3.33;0.98;;;;;;;2.44;78.96;101888.47;4979896;28;20035;-69
2022/03/08 02:23:30;;;;;;;1.05;0.95;;;;;;;2.46;78.54;101885.53;4992763;28;20121;-69
2022/03/08 02:25:56;;;;;;;2.30;0.90;;;;;;;2.46;78.58;101882.88;4996268;28;20150;-69
2022/03/08 02:28:22;;;;;;;1.00;0.80;;;;;;;2.43;79.03;101889.53;4995345;28;20951;-68
2022/03/08 02:30:47;;;;;;;1.90;0.93;;;;;;;2.36;79.25;101888.22;4996649;28;20030;-69
2022/03/08 02:33:13;;;;;;;1.45;0.70;;;;;;;2.31;78.60;101885.56;4994473;28;20396;-69
2022/03/08 02:35:38;;;;;;;1.85;1.20;;;;;;;2.30;79.39;101884.00;4979413;28;20039;-69
2022/03/08 02:38:05;;;;;;;0.63;0.63;;;;;;;2.32;79.28;101881.88;4982066;28;20104;-69
2022/03/08 02:40:34;;;;;;;0.80;0.70;;;;;;;2.36;79.21;101874.94;4990421;28;20431;-69
2022/03/08 02:43:00;;;;;;;2.15;0.95;;;;;;;2.33;79.54;101872.81;4990759;28;20527;-69
2022/03/08 02:45:25;;;;;;;1.10;0.63;;;;;;;2.29;78.99;101879.72;4991876;28;20161;-68
2022/03/08 02:47:51;;;;;;;1.50;0.60;;;;;;;2.25;79.65;101876.00;4993501;28;20038;-68
2022/03/08 02:50:18;;;;;;;1.88;0.57;;;;;;;2.25;79.22;101879.47;4975021;28;20121;-69
2022/03/08 02:52:46;;;;;;;1.45;0.65;;;;;;;2.24;79.52;101879.75;4992563;28;20125;-68
2022/03/08 02:55:12;;;;;;;3.75;1.10;;;;;;;2.22;79.75;101881.88;4975357;28;20034;-69
2022/03/08 02:57:40;;;;;;;0.95;0.63;;;;;;;2.15;80.07;101876.81;4993510;28;20102;-69
2022/03/08 03:00:08;;;;;;;3.60;0.63;;;;;;;2.12;79.52;101885.34;4979143;28;20035;-69
2022/03/08 03:02:33;;;;;;;0.93;0.65;;;;;;;2.11;80.14;101893.59;4974943;28;20068;-68
2022/03/08 03:04:59;;;;;;;0.55;0.55;;;;;;;2.14;79.76;101893.03;4984557;28;20535;-68
2022/03/08 03:07:25;;;;;;;1.75;0.90;;;;;;;2.11;79.86;101883.72;4992643;28;20042;-68
2022/03/08 03:09:50;;;;;;;4.10;1.02;;;;;;;2.10;80.32;101889.31;4965586;28;20066;-68
2022/03/08 03:12:16;;;;;;;0.98;0.90;;;;;;;2.06;80.74;101889.06;4986200;28;20050;-69
2022/03/08 03:14:42;;;;;;;0.80;0.57;;;;;;;2.05;81.03;101892.00;4968373;28;20041;-69
2022/03/08 03:17:08;;;;;;;1.73;0.60;;;;;;;2.01;80.40;101890.94;4986160;28;20026;-69
2022/03/08 03:19:33;;;;;;;0.68;0.68;;;;;;;1.98;80.97;101894.09;4968361;28;20568;-68
2022/03/08 03:21:59;;;;;;;2.17;0.73;;;;;;;1.97;81.04;101900.50;4989704;28;20030;-68
2022/03/08 03:24:24;;;;;;;2.03;0.98;;;;;;;1.91;80.76;101888.28;4987913;28;20050;-69
2022/03/08 03:26:50;;;;;;;1.88;0.93;;;;;;;1.89;81.27;101887.75;4973983;28;20045;-68
2022/03/08 03:29:15;;;;;;;0.45;0.45;;;;;;;1.88;81.25;101881.63;4957911;28;20043;-68
2022/03/08 03:31:40;;;;;;;1.20;0.98;;;;;;;1.88;80.56;101881.63;4993007;28;20073;-68
2022/03/08 03:34:06;;;;;;;1.83;0.63;;;;;;;1.82;81.15;101878.19;4971785;28;20129;-69
2022/03/08 03:36:31;;;;;;;1.15;0.70;;;;;;;1.78;81.46;101871.81;4989528;28;20035;-69
2022/03/08 03:38:57;;;;;;;2.60;0.93;;;;;;;1.77;80.91;101880.84;4991157;28;20026;-69
2022/03/08 03:41:22;;;;;;;0.85;0.80;;;;;;;1.74;81.47;101876.06;4990282;28;20038;-69
2022/03/08 03:43:47;;;;;;;3.13;0.73;;;;;;;1.72;81.24;101878.16;4990911;28;20057;-68
2022/03/08 03:46:13;;;;;;;0.35;0.35;;;;;;;1.70;81.55;101879.53;4988160;28;20491;-69
2022/03/08 03:48:39;;;;;;;0.63;0.63;;;;;;;1.68;81.72;101871.03;4982686;28;20038;-68
2022/03/08 03:51:04;;;;;;;3.10;0.82;;;;;;;1.67;81.75;101883.50;4989114;28;20033;-69
2022/03/08 03:53:30;;;;;;;1.05;0.77;;;;;;;1.70;81.25;101882.19;4990882;28;20112;-69
2022/03/08 03:55:55;;;;;;;0.32;0.32;;;;;;;1.67;81.47;101877.38;4972947;28;20035;-69
2022/03/08 03:58:20;;;;;;;1.27;0.68;;;;;;;1.63;81.14;101882.44;4986945;28;20030;-69
2022/03/08 04:00:46;;;;;;;1.25;0.80;;;;;;;1.57;81.16;101883.47;4989949;28;20510;-68
2022/03/08 04:03:13;;;;;;;0.85;0.60;;;;;;;1.61;81.63;101881.91;4989475;28;20061;-68
2022/03/08 04:05:38;;;;;;;1.45;1.00;;;;;;;1.63;81.34;101877.13;4986566;28;20049;-69
2022/03/08 04:08:04;;;;;;;1.38;0.68;;;;;;;1.65;81.97;101880.31;4968061;28;20478;-68
2022/03/08 04:10:29;;;;;;;1.25;0.73;;;;;;;1.66;81.56;101887.22;4990738;28;20325;-69
2022/03/08 04:12:55;;;;;;;1.30;0.85;;;;;;;1.60;81.43;101880.31;4982339;28;20035;-69
2022/03/08 04:15:20;;;;;;;2.78;0.65;;;;;;;1.62;81.50;101886.16;4985141;28;20138;-69
2022/03/08 04:17:46;;;;;;;2.15;1.08;;;;;;;1.59;81.55;101877.91;4990481;28;20056;-68
2022/03/08 04:20:12;;;;;;;3.95;0.93;;;;;;;1.60;81.56;101893.59;4990181;28;20084;-69
2022/03/08 04:22:37;;;;;;;0.85;0.70;;;;;;;1.64;81.34;101891.19;4988677;28;20495;-68
2022/03/08 04:25:03;;;;;;;1.35;0.80;;;;;;;1.57;81.17;101870.22;4989658;28;20038;-69
2022/03/08 04:27:29;;;;;;;2.25;0.82;;;;;;;1.57;81.90;101874.72;4992179;28;20073;-69
2022/03/08 04:29:54;;;;;;;0.82;0.38;;;;;;;1.57;81.92;101880.81;4990348;28;20491;-69
2022/03/08 04:32:20;;;;;;;0.60;0.50;;;;;;;1.57;82.07;101880.03;4967946;28;20045;-68
2022/03/08 04:34:46;;;;;;;0.50;0.50;;;;;;;1.50;82.03;101882.94;4964888;28;20030;-69
2022/03/08 04:37:11;;;;;;;1.13;0.60;;;;;;;1.49;82.46;101894.59;4982974;28;20498;-69
2022/03/08 04:39:36;;;;;;;0.70;0.55;;;;;;;1.47;82.33;101888.78;4963315;28;20042;-69
2022/03/08 04:42:02;;;;;;;2.03;0.90;;;;;;;1.45;82.47;101888.22;4969771;28;20030;-69
2022/03/08 04:44:28;;;;;;;0.60;0.60;;;;;;;1.43;82.17;101885.03;4971653;28;20491;-69
2022/03/08 04:46:53;;;;;;;2.38;0.93;;;;;;;1.41;82.83;101897.81;4989185;28;20093;-69
2022/03/08 04:49:19;;;;;;;1.45;0.80;;;;;;;1.38;82.78;101898.31;4990627;28;20046;-69
2022/03/08 04:51:44;;;;;;;1.05;0.75;;;;;;;1.34;82.84;101899.91;4972769;28;20085;-69
2022/03/08 04:54:09;;;;;;;0.40;0.40;;;;;;;1.35;82.88;101893.53;4987240;28;20031;-69
2022/03/08 04:56:35;;;;;;;1.65;0.80;;;;;;;1.34;83.43;101910.50;4987177;28;20027;-68
2022/03/08 04:59:00;;;;;;;0.73;0.63;;;;;;;1.34;83.42;101921.13;4990225;28;20034;-69
2022/03/08 05:01:26;;;;;;;1.50;0.90;;;;;;;1.36;83.30;101913.69;4991659;28;20042;-69
2022/03/08 05:03:51;;;;;;;2.28;0.80;;;;;;;1.39;83.38;101915.84;4990762;28;20042;-68
2022/03/08 05:06:17;;;;;;;1.30;0.77;;;;;;;1.36;83.24;101916.34;4977144;28;20027;-69
2022/03/08 05:08:43;;;;;;;2.67;0.80;;;;;;;1.39;83.09;101909.72;4982196;28;20044;-69
2022/03/08 05:11:09;;;;;;;0.68;0.68;;;;;;;1.34;82.64;101921.13;4987169;28;20022;-70
2022/03/08 05:13:34;;;;;;;2.08;0.90;;;;;;;1.30;82.61;101929.84;4987182;28;20832;-70
2022/03/08 05:16:00;;;;;;;0.40;0.40;;;;;;;1.26;82.93;101921.63;4970613;28;20041;-70
2022/03/08 05:18:26;;;;;;;4.50;0.70;;;;;;;1.24;83.02;101934.34;4986147;28;20042;-69
2022/03/08 05:20:51;;;;;;;0.88;0.82;;;;;;;1.25;83.26;101929.84;4952051;28;20160;-68
2022/03/08 05:23:17;;;;;;;2.20;1.25;;;;;;;1.24;83.44;101926.38;4989448;28;20034;-69
2022/03/08 05:25:42;;;;;;;1.90;1.20;;;;;;;1.24;83.18;101936.22;4989442;28;20483;-69
2022/03/08 05:28:08;;;;;;;1.50;0.80;;;;;;;1.23;83.66;101927.47;4957521;28;20535;-68
2022/03/08 05:30:34;;;;;;;1.00;0.70;;;;;;;1.19;83.36;101937.00;4978676;28;20078;-69
2022/03/08 05:32:59;;;;;;;1.15;1.05;;;;;;;1.12;83.68;101939.09;4980232;28;20037;-68
2022/03/08 05:35:25;;;;;;;1.00;0.90;;;;;;;1.15;83.73;101935.09;4969739;28;20030;-68
2022/03/08 05:37:51;;;;;;;2.28;0.80;;;;;;;1.13;83.72;101932.72;4987348;28;20655;-68
2022/03/08 05:40:16;;;;;;;2.58;1.15;;;;;;;1.13;83.81;101940.69;4988956;28;20038;-68
2022/03/08 05:42:43;;;;;;;2.47;1.27;;;;;;;1.10;83.89;101946.53;4978790;28;20503;-69
2022/03/08 05:45:10;;;;;;;1.80;0.88;;;;;;;1.07;83.97;101939.06;4971187;28;20042;-68
2022/03/08 05:47:36;;;;;;;2.08;0.80;;;;;;;1.02;83.89;101931.09;4988292;28;20114;-69
2022/03/08 05:50:02;;;;;;;1.00;0.90;;;;;;;1.02;84.04;101938.25;4988314;28;20042;-68
2022/03/08 05:52:28;;;;;;;0.90;0.90;;;;;;;0.99;84.21;101936.91;4979946;28;20061;-68
2022/03/08 05:54:53;;;;;;;2.22;0.88;;;;;;;1.00;84.29;101938.50;4981152;28;20045;-68
2022/03/08 05:57:19;;;;;;;3.63;0.80;;;;;;;1.01;84.51;101939.31;4968497;28;20026;-69
2022/03/08 05:59:44;;;;;;;2.78;0.93;;;;;;;1.04;84.64;101938.78;4988916;28;20467;-69
2022/03/08 06:02:11;;;;;;;2.00;1.40;;;;;;;1.07;84.66;101930.31;4991643;28;20029;-69
2022/03/08 06:04:36;;;;;;;1.02;0.93;;;;;;;1.07;84.15;101939.06;4981339;28;20084;-69
2022/03/08 06:07:02;;;;;;;4.25;1.60;;;;;;;1.05;84.24;101935.06;4984476;28;20038;-70
2022/03/08 06:09:27;;;;;;;3.30;1.25;;;;;;;1.03;84.50;101940.63;4987472;28;20034;-68
2022/03/08 06:11:53;;;;;;;2.50;1.40;;;;;;;0.98;84.46;101939.81;4991303;28;20486;-68
2022/03/08 06:14:18;;;;;;;1.80;1.38;;;;;;;1.04;84.89;101939.59;4990913;28;20050;-69
2022/03/08 06:16:44;;;;;;;2.38;1.05;;;;;;;1.04;85.09;101938.78;4989377;28;20499;-69
2022/03/08 06:19:09;;;;;;;4.05;1.52;;;;;;;1.04;84.84;101944.91;4974253;28;20076;-69
2022/03/08 06:21:35;;;;;;;3.03;1.27;;;;;;;1.08;85.11;101938.03;4980149;28;20035;-69
2022/03/08 06:24:00;;;;;;;1.73;1.33;;;;;;;1.11;85.21;101934.84;4973238;28;20034;-69
2022/03/08 06:26:26;;;;;;;3.33;1.63;;;;;;;1.16;85.04;101937.50;4968887;28;20492;-69
2022/03/08 06:28:51;;;;;;;4.00;1.75;;;;;;;1.15;85.20;101938.56;4991548;28;20045;-69
2022/03/08 06:31:17;;;;;;;1.33;1.20;;;;;;;1.17;85.16;101938.31;4990214;28;20030;-70
2022/03/08 06:33:42;;;;;;;1.95;1.75;;;;;;;1.18;84.84;101940.69;4977555;28;20039;-69
2022/03/08 06:36:07;;;;;;;2.92;1.08;;;;;;;1.19;85.10;101944.16;4970362;28;20061;-69
2022/03/08 06:38:33;;;;;;;4.25;1.50;;;;;;;1.20;85.26;101935.91;4980903;28;20411;-69
2022/03/08 06:40:58;;;;;;;2.35;1.48;;;;;;;1.15;84.72;101940.41;4967139;28;20653;-69
2022/03/08 06:43:24;;;;;;;1.98;1.05;;;;;;;1.10;85.31;101930.59;4966276;28;20034;-68
2022/03/08 06:45:49;;;;;;;1.17;1.00;;;;;;;1.13;84.86;101937.22;4988893;28;20034;-70
2022/03/08 06:48:14;;;;;;;1.92;1.10;;;;;;;1.11;85.45;101940.13;4984394;28;20534;-68
2022/03/08 06:50:40;;;;;;;1.35;1.13;;;;;;;1.15;85.64;101941.22;4960079;28;20073;-68
2022/03/08 06:53:05;;;;;;;2.45;1.58;;;;;;;1.23;85.76;101938.06;4977961;28;20034;-69
2022/03/08 06:55:31;;;;;;;1.40;1.25;;;;;;;1.26;85.79;101942.06;4980512;28;20108;-69
2022/03/08 06:57:56;;;;;;;1.40;1.05;;;;;;;1.28;85.28;101937.31;4978546;28;20035;-70
2022/03/08 07:00:22;;;;;;;2.58;1.27;;;;;;;1.33;85.21;101940.75;4977858;28;20463;-70
2022/03/08 07:02:47;;;;;;;1.33;0.93;;;;;;;1.37;84.86;101941.03;4977527;28;20023;-70
2022/03/08 07:05:12;;;;;;;1.42;0.80;;;;;;;1.41;84.85;101940.25;4961477;28;20141;-69
2022/03/08 07:07:38;;;;;;;1.65;0.98;;;;;;;1.45;84.68;101936.00;4986831;28;20035;-70
2022/03/08 07:10:05;;;;;;;2.00;1.27;;;;;;;1.50;84.99;101930.72;4988704;28;20022;-69
2022/03/08 07:12:31;;;;;;;1.70;1.20;;;;;;;1.55;84.80;101920.09;4972335;28;20100;-69
2022/03/08 07:14:57;;;;;;;1.23;1.00;;;;;;;1.60;84.67;101922.78;4989532;28;20042;-69
2022/03/08 07:17:22;;;;;;;2.22;1.20;;;;;;;1.68;84.90;101926.78;4986129;28;20042;-69
2022/03/08 07:19:47;;;;;;;1.75;1.00;;;;;;;1.71;84.29;101931.53;4984896;28;20395;-70
2022/03/08 07:22:15;;;;;;;2.47;1.63;;;;;;;1.77;84.27;101922.53;4986880;28;20046;-69
2022/03/08 07:24:41;;;;;;;2.05;1.02;;;;;;;1.86;84.23;101926.22;4974140;28;20117;-70
2022/03/08 07:27:08;;;;;;;2.00;1.38;;;;;;;1.99;83.63;101927.56;4984287;28;20201;-69
2022/03/08 07:29:34;;;;;;;3.13;1.35;;;;;;;2.14;83.58;101938.19;4969646;28;20035;-69
2022/03/08 07:32:00;;;;;;;3.38;1.77;;;;;;;2.26;82.77;101930.75;4983956;28;20128;-69
2022/03/08 07:34:25;;;;;;;3.33;1.85;;;;;;;2.41;82.78;101933.38;4985114;28;20504;-69
2022/03/08 07:36:50;;;;;;;3.63;1.33;;;;;;;2.57;82.06;101937.63;4988530;28;20038;-69
2022/03/08 07:39:16;;;;;;;3.15;1.38;;;;;;;2.73;82.19;101929.31;4987106;28;20053;-69
2022/03/08 07:41:41;;;;;;;1.55;0.80;;;;;;;2.91;81.07;101927.13;4982227;28;20042;-69
2022/03/08 07:44:07;;;;;;;2.78;1.00;;;;;;;3.04;79.39;101930.00;4946787;28;20068;-69
2022/03/08 07:46:32;;;;;;;2.90;1.00;;;;;;;3.29;79.14;101937.88;4983534;28;20089;-70
2022/03/08 07:48:58;;;;;;;6.40;1.33;;;;;;;3.52;77.96;101929.22;4965747;28;20031;-69
2022/03/08 07:51:24;;;;;;;1.83;1.05;;;;;;;3.72;78.08;101932.84;4989998;28;20038;-69
2022/03/08 07:53:50;;;;;;;2.50;1.20;;;;;;;3.94;77.08;101936.66;4979264;28;20085;-70
2022/03/08 07:56:16;;;;;;;2.83;0.93;;;;;;;4.03;76.80;101935.00;4964039;28;20031;-69
2022/03/08 07:58:46;;;;;;;2.47;1.17;;;;;;;4.19;76.42;101941.00;4977754;28;20101;-71
2022/03/08 08:01:12;;;;;;;3.63;1.47;;;;;;;4.35;75.92;101939.78;4948649;28;20045;-70
2022/03/08 08:03:37;;;;;;;1.60;1.20;;;;;;;4.53;73.95;101941.72;4975051;28;20061;-69
2022/03/08 08:06:03;;;;;;;1.55;1.13;;;;;;;4.74;72.88;101945.00;4960412;28;20030;-69
2022/03/08 08:08:29;;;;;;;3.78;1.30;;;;;;;4.84;71.82;101951.00;4978302;28;20041;-70
2022/03/08 08:10:54;;;;;;;2.28;1.20;;;;;;;4.99;71.38;101950.84;4975994;28;20061;-69
2022/03/08 08:13:19;;;;;;;2.83;1.42;;;;;;;5.12;69.85;101952.00;4979171;28;20039;-69
2022/03/08 08:15:45;;;;;;;2.30;1.30;;;;;;;5.29;68.45;101949.66;4961613;28;20048;-69
2022/03/08 08:18:10;;;;;;;2.25;1.33;;;;;;;5.54;68.24;101949.31;4979560;28;20134;-69
2022/03/08 08:20:36;;;;;;;2.97;1.02;;;;;;;5.75;66.98;101961.28;4978683;28;20046;-70
2022/03/08 08:23:01;;;;;;;3.30;1.52;;;;;;;5.89;65.70;101956.03;4978343;28;20038;-69
2022/03/08 08:25:28;;;;;;;2.30;1.27;;;;;;;6.07;64.75;101953.34;4963106;28;20034;-70
2022/03/08 08:27:53;;;;;;;3.47;1.08;;;;;;;6.35;63.23;101959.56;4969134;28;20137;-69
2022/03/08 08:30:19;;;;;;;1.50;1.10;;;;;;;6.65;61.48;101961.72;4985147;28;20130;-72
2022/03/08 08:32:44;;;;;;;3.60;1.10;;;;;;;6.79;59.77;101959.84;4961457;28;20037;-69
2022/03/08 08:35:10;;;;;;;3.08;1.15;;;;;;;6.84;57.96;101967.78;4984692;28;20030;-69
2022/03/08 08:37:36;;;;;;;2.38;1.20;;;;;;;7.07;58.15;101968.66;4984921;28;20046;-70
2022/03/08 08:40:03;;;;;;;3.63;1.70;;;;;;;7.08;58.05;101973.72;4961894;28;20069;-69
2022/03/08 08:42:28;;;;;;;2.42;1.48;;;;;;;7.27;57.96;101973.63;4967118;28;20038;-69
2022/03/08 08:44:54;;;;;;;2.85;1.30;;;;;;;7.43;58.00;101974.91;4987862;28;20399;-70
2022/03/08 08:47:19;;;;;;;2.05;1.33;;;;;;;7.67;56.86;101964.69;4986183;28;20710;-69
2022/03/08 08:49:44;;;;;;;4.05;1.50;;;;;;;7.74;56.17;101961.59;4967673;28;20030;-69
2022/03/08 08:52:11;;;;;;;1.73;0.77;;;;;;;7.95;54.88;101968.88;4988994;28;20041;-69
2022/03/08 08:54:37;;;;;;;2.25;1.17;;;;;;;8.14;54.61;101961.44;4990231;28;20034;-69
2022/03/08 08:57:02;;;;;;;2.13;1.00;;;;;;;8.19;53.50;101957.81;4971817;28;20053;-69
2022/03/08 08:59:28;;;;;;;1.85;0.90;;;;;;;8.36;52.81;101966.03;4987124;28;20113;-69
2022/03/08 09:01:53;;;;;;;1.17;0.80;;;;;;;8.56;52.46;101964.69;4983574;28;20041;-69
2022/03/08 09:04:18;;;;;;;1.40;0.93;;;;;;;8.64;52.13;101953.22;4990065;28;20475;-71
2022/03/08 09:06:44;;;;;;;3.47;1.27;;;;;;;8.79;51.68;101955.47;4987446;28;20048;-68
2022/03/08 09:09:09;;;;;;;2.63;1.08;;;;;;;8.88;51.20;101964.38;4970231;28;20050;-68
2022/03/08 09:11:35;;;;;;;1.42;0.90;;;;;;;8.92;50.69;101958.06;4971062;28;20053;-69
2022/03/08 09:14:02;;;;;;;1.90;1.00;;;;;;;8.95;50.50;101953.97;4965935;28;20400;-70
2022/03/08 09:16:28;;;;;;;1.05;0.82;;;;;;;9.08;50.17;101956.53;4989305;28;20038;-70
2022/03/08 09:18:53;;;;;;;1.58;1.00;;;;;;;9.27;49.25;101955.47;4953570;28;20042;-69
2022/03/08 09:21:19;;;;;;;3.03;1.80;;;;;;;9.38;49.36;101951.38;4953393;28;20042;-69
2022/03/08 09:23:44;;;;;;;0.70;0.70;;;;;;;9.39;48.97;101942.22;4988147;28;20045;-68
2022/03/08 09:26:09;;;;;;;1.67;0.88;;;;;;;9.41;49.32;101942.66;4990350;28;20061;-69
2022/03/08 09:28:35;;;;;;;1.80;0.80;;;;;;;9.67;48.74;101944.28;4969601;28;20117;-70
2022/03/08 09:31:00;;;;;;;3.00;1.00;;;;;;;9.85;48.74;101945.09;4970744;28;20042;-69
2022/03/08 09:33:27;;;;;;;1.77;0.73;;;;;;;9.93;47.77;101941.56;4985978;28;20038;-69
2022/03/08 09:35:52;;;;;;;1.83;1.00;;;;;;;10.14;46.99;101939.06;4960830;28;20193;-69
2022/03/08 09:38:19;;;;;;;1.58;1.10;;;;;;;10.10;47.43;101941.59;4966905;28;20547;-69
2022/03/08 09:40:44;;;;;;;3.38;0.85;;;;;;;10.32;46.70;101936.00;4974115;28;20043;-69
2022/03/08 09:43:11;;;;;;;1.35;0.90;;;;;;;10.48;46.11;101937.06;4987399;28;20479;-69
2022/03/08 09:45:37;;;;;;;2.28;1.20;;;;;;;10.54;46.38;101926.91;4991643;28;20666;-68
2022/03/08 09:48:04;;;;;;;1.52;0.88;;;;;;;10.58;46.12;101927.84;4975213;28;20154;-69
2022/03/08 09:50:30;;;;;;;4.05;1.58;;;;;;;10.66;45.89;101927.81;4984012;28;20041;-71
2022/03/08 09:52:57;;;;;;;1.52;0.82;;;;;;;10.62;45.76;101928.78;4991298;28;20133;-70
2022/03/08 09:55:25;;;;;;;4.78;1.10;;;;;;;10.78;45.88;101929.84;4990160;28;20379;-69
2022/03/08 09:57:52;;;;;;;2.38;1.05;;;;;;;10.75;45.10;101933.97;4976021;28;20065;-71
2022/03/08 10:00:19;;;;;;;2.40;1.40;;;;;;;10.50;45.94;101931.34;4972944;28;20038;-69
2022/03/08 10:02:45;;;;;;;1.17;0.82;;;;;;;10.53;45.84;101920.72;4986480;28;20639;-69
2022/03/08 10:05:10;;;;;;;1.55;1.10;;;;;;;10.60;46.32;101920.22;4984150;28;20046;-70
2022/03/08 10:07:36;;;;;;;3.28;0.90;;;;;;;10.81;45.34;101924.56;4990753;28;20184;-69
2022/03/08 10:10:03;;;;;;;1.48;0.80;;;;;;;10.64;45.80;101927.34;4984733;28;20451;-70
2022/03/08 10:12:29;;;;;;;1.70;0.90;;;;;;;10.68;45.47;101922.09;4991767;28;20036;-69
2022/03/08 10:14:54;;;;;;;1.10;1.00;;;;;;;10.62;45.90;101929.59;4984840;28;20464;-69
2022/03/08 10:17:35;;;;;;;2.05;1.15;;;;;;;10.63;45.69;101930.34;4974977;28;20031;-69
2022/03/08 10:20:01;;;;;;;2.42;1.17;;;;;;;10.71;44.79;101930.31;4987242;28;20392;-70
2022/03/08 10:22:32;;;;;;;3.60;1.40;;;;;;;10.64;45.16;101937.34;4984860;28;20038;-69
2022/03/08 10:25:14;;;;;;;;;;;;;;;10.58;46.38;101934.03;4992477;28;20037;-69
2022/03/08 10:28:01;;;;;;;3.17;1.33;;;;;;;10.69;45.92;101929.84;4987612;28;20460;-69
2022/03/08 10:30:44;;;;;;;3.63;1.55;;;;;;;10.79;45.06;101924.13;4990064;28;20045;-69
2022/03/08 10:33:11;;;;;;;3.55;1.70;;;;;;;10.84;45.42;101932.00;4988566;28;20038;-69
2022/03/08 10:35:42;;;;;;;1.98;1.40;;;;;;;10.95;45.00;101924.34;4970927;28;20046;-69
2022/03/08 10:38:11;;;;;;;2.47;1.52;;;;;;;10.83;45.18;101926.94;4986849;28;20038;-69
2022/03/08 10:40:38;;;;;;;4.32;1.50;;;;;;;10.82;45.42;101919.97;4989242;28;20132;-69
2022/03/08 10:43:06;;;;;;;4.70;1.67;;;;;;;10.84;45.42;101910.44;4984605;28;21192;-69
2022/03/08 10:45:34;;;;;;;2.35;1.17;;;;;;;10.98;45.03;101912.91;4990229;28;20038;-69
2022/03/08 10:48:03;;;;;;;4.00;1.02;;;;;;;10.96;45.45;101912.44;4989351;28;20113;-69
2022/03/08 10:50:31;;;;;;;2.53;0.98;;;;;;;10.88;45.11;101913.28;4986524;28;20042;-69
2022/03/08 10:52:59;;;;;;;2.78;1.13;;;;;;;10.95;45.93;101916.25;4984864;28;20026;-69
2022/03/08 10:55:32;;;;;;;1.23;0.95;;;;;;;10.95;45.90;101910.88;4987193;28;20052;-69
2022/03/08 10:58:06;;;;;;;3.42;1.20;;;;;;;11.07;45.23;101904.78;4991238;28;20038;-69
2022/03/08 11:00:44;;;;;;;1.42;0.75;;;;;;;11.26;44.82;101907.81;4975865;28;20825;-69
2022/03/08 11:03:20;;;;;;;3.35;1.65;;;;;;;11.32;45.59;101907.31;4982531;28;20034;-69
2022/03/08 11:05:48;;;;;;;2.30;1.10;;;;;;;11.34;45.27;101907.75;4990605;28;20522;-69
2022/03/08 11:08:15;;;;;;;2.47;0.88;;;;;;;11.43;45.38;101905.00;4984127;28;20033;-69
2022/03/08 11:10:42;;;;;;;1.27;1.05;;;;;;;11.61;44.28;101909.16;4985056;28;20041;-69
2022/03/08 11:13:08;;;;;;;2.75;1.20;;;;;;;11.59;44.19;101895.19;4986455;28;20030;-69
2022/03/08 11:15:37;;;;;;;1.52;0.75;;;;;;;11.61;43.34;101892.94;4990848;28;20066;-69
2022/03/08 11:18:06;;;;;;;0.90;0.63;;;;;;;11.66;42.54;101893.56;4992690;28;20066;-68
2022/03/08 11:20:34;;;;;;;0.88;0.73;;;;;;;11.55;42.77;101891.56;4984973;28;20062;-69
2022/03/08 11:23:00;;;;;;;1.02;0.68;;;;;;;11.57;43.07;101889.34;4980064;28;20057;-69
2022/03/08 11:25:52;;;;;;;0.68;0.60;;;;;;;11.65;42.77;101893.88;4966019;28;20039;-68
2022/03/08 11:28:19;;;;;;;1.45;0.73;;;;;;;11.65;42.80;101896.56;4986957;28;20192;-69